Terminal Aerodrome Forecast
Issued by NWS Lake Charles, LA

Home | Current Version | Previous Version | Text Only | Print | Product List | Glossary On
Versions: 1 2 3 4 5 6 7 8 9 10 11 12 13 14 15 16 17 18 19
000
FTUS44 KLCH 191120
TAFAEX
TAF
KAEX 191120Z 1912/2012 VRB05KT P6SM SCT015 SCT040 SCT120
     FM191400 25010KT P6SM SCT015
     FM191700 22010KT P6SM SCT015 SCT025
     FM192100 21010KT P6SM SCT015 SCT050 SCT080
     FM192300 VRB05KT P6SM BKN080
     FM200700 29006KT P6SM SKC=

USA.gov is the U.S. government's official web portal to all federal, state and local government web resources and services.